Castle Valley, Utah
Current Conditions -  °F | °C
As of 11:53 AM on Friday 31 Oct 2014 (Local Time) from KCNY Reporting Station
Clear Clear  
Wind Chill: 62°   Ceiling: Unl
Heat Index: 62°   Visibility: 10mi
Dew Point: 25°   Wind: 3mph
Humidity: 24%   Direction: NA
Pressure: 30.14"   Gusts: NA
Location:  38.6903°N, 109.256°W
Report Text: KCNY 311753Z AUTO VRB03KT 10SM CLR 17/M04 A3014 RMK AO2 SLP186 T01671039 10167 20017 58007
Loading
Personal Weather Stations






























Interactive Weather Map New forecast layout! Learn more

10-Day Weather Forecast

Advertisements
Track Severe Weather on mobile